Time;durP1;ratioP1;P1;durP2;ratioP2;P2;SDS_P1;SDS_P2;PMS_P1;PMS_P2;Temp;Humidity;BMP_temperature;BMP_pressure;BME280_temperature;BME280_humidity;BME280_pressure;Samples;Min_cycle;Max_cycle;Signal;HPM_P1;HPM_P2
2022/04/16 00:00:47;;;;;;;21.05;11.68;;;;;;;7.33;77.65;102966.50;5055075;28;20099;-78
2022/04/16 00:03:13;;;;;;;20.75;11.80;;;;;;;7.31;77.83;102969.88;5054923;28;20029;-79
2022/04/16 00:05:38;;;;;;;18.45;10.40;;;;;;;7.33;77.81;102970.78;5055088;28;20033;-78
2022/04/16 00:08:07;;;;;;;18.63;10.70;;;;;;;7.31;77.43;102968.16;5055738;28;20028;-78
2022/04/16 00:10:37;;;;;;;19.83;10.88;;;;;;;7.24;78.06;102963.63;5054442;28;20445;-79
2022/04/16 00:13:03;;;;;;;19.55;11.80;;;;;;;7.23;77.90;102967.03;5055330;28;20108;-78
2022/04/16 00:15:31;;;;;;;19.23;10.40;;;;;;;7.23;77.71;102962.75;5055435;28;20075;-78
2022/04/16 00:17:56;;;;;;;18.75;10.77;;;;;;;7.21;78.30;102966.97;5054452;28;20033;-78
2022/04/16 00:20:25;;;;;;;19.00;10.47;;;;;;;7.20;78.11;102964.34;5054060;28;20021;-78
2022/04/16 00:22:54;;;;;;;18.80;11.27;;;;;;;7.17;78.39;102966.81;5054169;28;20409;-78
2022/04/16 00:25:20;;;;;;;19.73;11.10;;;;;;;7.13;79.30;102965.00;5054842;28;20029;-78
2022/04/16 00:27:47;;;;;;;18.80;11.50;;;;;;;7.11;78.92;102963.22;5054294;28;20075;-78
2022/04/16 00:30:17;;;;;;;20.70;12.10;;;;;;;7.08;79.46;102972.59;5054365;28;20025;-79
2022/04/16 00:32:45;;;;;;;20.45;11.82;;;;;;;7.08;78.50;102968.28;5054886;28;20087;-78
2022/04/16 00:35:11;;;;;;;20.63;10.93;;;;;;;7.08;79.16;102968.28;5054898;28;20473;-78
2022/04/16 00:37:36;;;;;;;19.63;10.90;;;;;;;7.08;79.39;102973.44;5054089;28;20021;-78
2022/04/16 00:40:04;;;;;;;21.27;12.77;;;;;;;7.04;79.45;102974.16;5054884;28;20033;-78
2022/04/16 00:42:39;;;;;;;20.50;12.45;;;;;;;7.02;79.48;102978.41;5055668;28;20409;-78
2022/04/16 00:45:06;;;;;;;21.30;13.00;;;;;;;6.99;79.99;102973.13;5054013;28;20076;-78
2022/04/16 00:47:37;;;;;;;24.20;14.35;;;;;;;6.93;80.14;102975.50;5054497;28;20021;-78
2022/04/16 00:50:10;;;;;;;20.83;12.27;;;;;;;6.94;79.90;102980.72;5054675;28;20031;-79
2022/04/16 00:52:37;;;;;;;21.20;12.85;;;;;;;6.91;80.04;102980.63;5053543;28;20017;-79
2022/04/16 00:55:08;;;;;;;21.95;12.68;;;;;;;6.91;79.53;102977.19;5054632;28;20064;-78
2022/04/16 00:57:38;;;;;;;21.33;12.73;;;;;;;6.89;79.74;102977.09;5054307;28;20033;-79
2022/04/16 01:00:04;;;;;;;23.80;14.48;;;;;;;6.82;80.31;102974.25;5053987;28;20048;-78
2022/04/16 01:02:29;;;;;;;21.70;13.50;;;;;;;6.82;80.25;102964.81;5054312;28;20090;-78
2022/04/16 01:04:54;;;;;;;23.00;14.57;;;;;;;6.74;81.01;102969.72;5053286;28;20103;-78
2022/04/16 01:07:26;;;;;;;23.23;15.70;;;;;;;6.72;80.79;102975.66;5054098;28;20036;-78
2022/04/16 01:09:52;;;;;;;22.42;13.70;;;;;;;6.73;81.04;102974.84;5054101;28;20446;-78
2022/04/16 01:12:18;;;;;;;22.70;13.90;;;;;;;6.71;81.27;102972.19;5053326;28;20057;-79
2022/04/16 01:14:45;;;;;;;22.50;14.20;;;;;;;6.70;81.31;102980.75;5053965;28;20021;-78
2022/04/16 01:17:13;;;;;;;22.98;14.30;;;;;;;6.69;81.50;102971.28;5054237;28;20450;-79
2022/04/16 01:19:41;;;;;;;22.65;14.77;;;;;;;6.63;81.75;102978.78;5053012;28;20029;-79
2022/04/16 01:22:16;;;;;;;24.48;15.10;;;;;;;6.59;82.15;102984.63;5054094;28;20017;-79
2022/04/16 01:24:48;;;;;;;25.08;15.77;;;;;;;6.59;82.08;102984.63;5053035;28;20037;-78
2022/04/16 01:27:14;;;;;;;23.05;14.75;;;;;;;6.60;81.53;102986.41;5052792;28;20044;-78
2022/04/16 01:29:41;;;;;;;23.30;15.17;;;;;;;6.57;82.53;102983.75;5053516;28;20083;-78
2022/04/16 01:32:09;;;;;;;23.55;14.38;;;;;;;6.58;81.59;102988.94;5052312;28;20397;-79
2022/04/16 01:34:37;;;;;;;22.30;14.30;;;;;;;6.55;82.49;102990.53;5053504;28;20017;-78
2022/04/16 01:37:04;;;;;;;22.83;14.38;;;;;;;6.54;81.97;102988.78;5053531;28;20493;-78
2022/04/16 01:39:30;;;;;;;25.38;15.25;;;;;;;6.51;82.62;102996.41;5053846;28;20032;-79
2022/04/16 01:41:57;;;;;;;25.48;16.52;;;;;;;6.45;83.15;102999.63;5052564;28;20465;-79
2022/04/16 01:44:22;;;;;;;23.65;14.85;;;;;;;6.46;82.55;102998.81;5053630;28;20048;-78
2022/04/16 01:46:48;;;;;;;25.67;16.00;;;;;;;6.43;82.92;103001.28;5053033;28;20106;-78
2022/04/16 01:49:13;;;;;;;23.35;14.15;;;;;;;6.45;82.37;103000.53;5052985;28;20025;-78
2022/04/16 01:51:38;;;;;;;24.30;15.70;;;;;;;6.40;82.88;103002.03;5053157;28;20432;-79
2022/04/16 01:54:04;;;;;;;23.27;15.13;;;;;;;6.38;83.02;102993.38;5052987;28;20021;-78
2022/04/16 01:56:29;;;;;;;23.30;15.10;;;;;;;6.38;83.40;103001.09;5053202;28;20039;-78
2022/04/16 01:58:54;;;;;;;22.65;14.63;;;;;;;6.34;83.44;103000.13;5053070;28;20112;-79
2022/04/16 02:01:20;;;;;;;24.75;15.38;;;;;;;6.33;83.83;102998.34;5052722;28;20025;-79
2022/04/16 02:03:45;;;;;;;25.48;15.98;;;;;;;6.30;83.47;102993.09;5053204;28;20040;-78
2022/04/16 02:06:12;;;;;;;26.27;17.50;;;;;;;6.25;84.17;102999.78;5053333;28;20029;-79
2022/04/16 02:08:43;;;;;;;26.60;16.70;;;;;;;6.26;83.82;102992.91;5052141;28;20120;-78
2022/04/16 02:11:08;;;;;;;25.65;16.25;;;;;;;6.28;83.80;102993.84;5053180;28;20032;-78
2022/04/16 02:13:34;;;;;;;26.30;17.00;;;;;;;6.25;84.50;102991.19;5053167;28;20033;-78
2022/04/16 02:16:00;;;;;;;24.65;15.73;;;;;;;6.20;84.43;102984.97;5051797;28;20017;-79
2022/04/16 02:18:25;;;;;;;26.30;16.65;;;;;;;6.23;84.34;102990.25;5033178;28;20028;-79
2022/04/16 02:20:50;;;;;;;24.45;16.17;;;;;;;6.21;84.36;102992.75;5047032;28;20020;-78
2022/04/16 02:23:16;;;;;;;25.20;16.30;;;;;;;6.22;84.50;102996.22;5052510;28;20096;-79
2022/04/16 02:25:43;;;;;;;24.40;16.23;;;;;;;6.22;84.15;102997.06;5052360;28;20029;-78
2022/04/16 02:28:09;;;;;;;24.13;14.35;;;;;;;6.23;84.05;102993.69;5052714;28;20021;-80
2022/04/16 02:30:35;;;;;;;23.58;14.73;;;;;;;6.22;84.15;103002.25;5052141;28;20028;-78
2022/04/16 02:33:00;;;;;;;24.20;15.75;;;;;;;6.20;84.56;102998.72;5052282;28;20037;-79
2022/04/16 02:35:25;;;;;;;24.27;15.77;;;;;;;6.17;84.54;102998.63;5053061;28;20025;-79
2022/04/16 02:37:51;;;;;;;26.55;17.33;;;;;;;6.15;85.14;103000.25;5052150;28;20103;-79
2022/04/16 02:40:16;;;;;;;24.83;16.08;;;;;;;6.18;84.30;103000.38;5052787;28;20021;-79
2022/04/16 02:42:43;;;;;;;23.27;14.80;;;;;;;6.15;84.76;103003.69;5051751;28;20037;-79
2022/04/16 02:47:58;;;;;;;21.05;12.18;;;;;;;6.17;83.44;103011.50;5052711;28;20048;-78
2022/04/16 02:50:27;;;;;;;21.38;13.00;;;;;;;6.15;84.17;103011.44;5051714;28;20036;-78
2022/04/16 02:52:53;;;;;;;21.23;12.90;;;;;;;6.14;84.42;103006.22;5052179;28;20025;-79
2022/04/16 02:55:18;;;;;;;22.50;13.60;;;;;;;6.09;84.88;103010.31;5052882;28;20477;-78
2022/04/16 02:57:44;;;;;;;24.25;15.90;;;;;;;6.07;84.73;103012.00;5051212;28;20519;-78
2022/04/16 03:00:14;;;;;;;24.30;15.77;;;;;;;6.03;84.40;103010.97;5052683;28;20051;-78
2022/04/16 03:02:40;;;;;;;23.70;13.85;;;;;;;6.01;85.03;103010.06;5052190;28;20032;-78
2022/04/16 03:05:06;;;;;;;23.08;14.85;;;;;;;6.01;84.70;103021.22;5051870;28;20444;-78
2022/04/16 03:07:36;;;;;;;23.83;14.77;;;;;;;5.98;85.18;103021.06;5052550;28;20104;-78
2022/04/16 03:10:06;;;;;;;25.30;16.65;;;;;;;5.91;85.54;103023.38;5052005;28;20104;-79
2022/04/16 03:12:48;;;;;;;24.67;15.98;;;;;;;5.91;85.30;103021.66;5051700;28;20021;-78
2022/04/16 03:18:02;;;;;;;25.98;16.77;;;;;;;5.84;85.81;103025.69;5051981;28;20044;-79
2022/04/16 03:20:29;;;;;;;25.75;16.90;;;;;;;5.78;86.21;103022.88;5051359;28;20025;-79
2022/04/16 03:22:57;;;;;;;;;;;;;;;5.78;86.02;103020.31;5052614;28;20025;-78
2022/04/16 03:25:22;;;;;;;24.85;15.98;;;;;;;5.75;85.90;103020.19;5052395;28;20011;-78
2022/04/16 03:27:48;;;;;;;26.48;16.65;;;;;;;5.73;86.22;103024.38;5051116;28;20120;-78
2022/04/16 03:30:13;;;;;;;26.52;16.65;;;;;;;5.69;86.65;103019.91;5052387;28;20074;-79
2022/04/16 03:32:40;;;;;;;25.52;16.48;;;;;;;5.68;86.48;103026.78;5050988;28;20065;-78
2022/04/16 03:35:07;;;;;;;26.38;16.70;;;;;;;5.64;86.60;103024.88;5052213;28;20403;-78
2022/04/16 03:37:32;;;;;;;;;;;;;;;5.68;86.02;103025.91;5052563;28;20040;-78
2022/04/16 03:39:58;;;;;;;23.00;14.20;;;;;;;5.65;86.25;103030.94;5051389;28;20368;-79
2022/04/16 03:42:23;;;;;;;26.52;16.33;;;;;;;5.64;86.31;103029.19;5052120;28;20389;-78
2022/04/16 03:44:48;;;;;;;24.05;14.88;;;;;;;5.64;86.09;103026.59;5051584;28;20107;-78
2022/04/16 03:47:13;;;;;;;24.27;15.23;;;;;;;5.62;86.43;103023.97;5051353;28;20029;-78
2022/04/16 03:49:39;;;;;;;22.10;13.87;;;;;;;5.64;85.81;103026.59;5051754;28;20029;-78
2022/04/16 03:52:05;;;;;;;23.30;14.65;;;;;;;5.60;86.99;103030.75;5051897;28;20055;-78
2022/04/16 04:00:00;;;;;;;24.48;15.15;;;;;;;5.54;86.56;103023.66;5055712;28;20052;-78
2022/04/16 04:02:31;;;;;;;23.85;15.30;;;;;;;5.52;86.76;103025.28;5054979;28;20377;-78
2022/04/16 04:05:00;;;;;;;23.50;14.57;;;;;;;5.52;86.38;103026.97;5055195;28;20044;-78
2022/04/16 04:07:25;;;;;;;27.65;17.55;;;;;;;5.46;87.20;103031.88;5055606;28;20111;-79
2022/04/16 04:09:51;;;;;;;25.63;16.63;;;;;;;5.43;87.01;103029.16;5054253;28;20489;-79
2022/04/16 04:12:16;;;;;;;27.38;17.35;;;;;;;5.39;87.26;103034.22;5055724;28;20389;-79
2022/04/16 04:14:43;;;;;;;24.73;15.38;;;;;;;5.39;86.81;103031.63;5053923;28;20397;-78
2022/04/16 04:17:09;;;;;;;;;;;;;;;5.40;87.33;103040.22;5055938;28;20044;-79
2022/04/16 04:19:36;;;;;;;24.43;14.60;;;;;;;5.40;86.90;103037.66;5055392;28;19912;-79
2022/04/16 04:22:05;;;;;;;;;;;;;;;5.37;87.61;103041.00;5054324;28;20037;-78
2022/04/16 04:24:31;;;;;;;24.02;14.55;;;;;;;5.38;86.39;103039.28;5055373;28;19912;-79
2022/04/16 04:26:57;;;;;;;24.58;14.98;;;;;;;5.34;87.90;103040.84;5054763;28;20032;-79
2022/04/16 04:29:23;;;;;;;25.10;15.45;;;;;;;5.34;87.12;103045.13;5054372;28;20021;-79
2022/04/16 04:31:50;;;;;;;25.35;15.48;;;;;;;5.34;86.96;103043.44;5054051;28;20111;-79
2022/04/16 04:34:16;;;;;;;24.90;16.05;;;;;;;5.27;87.49;103046.56;5055140;28;20028;-79
2022/04/16 04:36:41;;;;;;;25.63;15.60;;;;;;;5.33;87.26;103051.09;5054109;28;20476;-79
2022/04/16 04:39:06;;;;;;;22.88;13.80;;;;;;;5.35;86.51;103054.59;5054878;28;20032;-79
2022/04/16 04:41:31;;;;;;;22.42;13.63;;;;;;;5.33;87.26;103061.41;5054842;28;20435;-79
2022/04/16 04:43:57;;;;;;;24.27;14.77;;;;;;;5.35;87.73;103070.03;5053284;28;20035;-79
2022/04/16 04:46:22;;;;;;;23.40;14.25;;;;;;;5.34;87.84;103070.88;5054811;28;20040;-79
2022/04/16 04:48:47;;;;;;;25.00;15.95;;;;;;;5.34;87.47;103078.63;5054069;28;20453;-79
2022/04/16 04:51:16;;;;;;;24.38;14.82;;;;;;;5.31;87.09;103065.59;5054026;28;20037;-79
2022/04/16 04:53:41;;;;;;;26.48;15.48;;;;;;;5.31;87.54;103074.19;5054232;28;20033;-79
2022/04/16 04:56:06;;;;;;;30.08;19.83;;;;;;;5.27;88.51;103072.31;5054646;28;20032;-79
2022/04/16 04:58:34;;;;;;;26.98;17.70;;;;;;;5.25;88.27;103072.22;5035722;28;20481;-79
2022/04/16 05:01:00;;;;;;;24.58;15.50;;;;;;;5.26;87.42;103083.44;5054387;28;20093;-79
2022/04/16 05:03:25;;;;;;;25.33;15.77;;;;;;;5.25;87.83;103081.66;5054612;28;20516;-79
2022/04/16 05:05:50;;;;;;;29.23;18.42;;;;;;;5.18;89.21;103079.66;5052840;28;20362;-79
2022/04/16 05:08:16;;;;;;;28.27;18.85;;;;;;;5.20;88.67;103086.63;5054318;28;20484;-79
2022/04/16 05:10:41;;;;;;;28.15;18.88;;;;;;;5.15;89.02;103080.38;5054156;28;20031;-79
2022/04/16 05:13:06;;;;;;;30.20;19.00;;;;;;;5.13;88.93;103084.56;5053317;28;20377;-79
2022/04/16 05:15:32;;;;;;;28.27;18.35;;;;;;;5.18;88.99;103089.94;5053980;28;20079;-79
2022/04/16 05:17:57;;;;;;;30.95;20.58;;;;;;;5.15;89.80;103093.25;5053957;28;20036;-79
2022/04/16 05:20:22;;;;;;;30.88;20.25;;;;;;;5.17;89.20;103089.06;5053686;28;20041;-79
2022/04/16 05:22:48;;;;;;;30.83;20.88;;;;;;;5.18;89.54;103087.38;5054071;28;20032;-79
2022/04/16 05:25:13;;;;;;;28.35;19.23;;;;;;;5.21;89.16;103090.06;5052772;28;20023;-79
2022/04/16 05:27:38;;;;;;;29.77;19.55;;;;;;;5.22;89.73;103094.41;5053748;28;20094;-79
2022/04/16 05:30:11;;;;;;;29.33;19.60;;;;;;;5.24;89.49;103103.94;5053583;28;20041;-79
2022/04/16 05:32:38;;;;;;;29.27;18.88;;;;;;;5.28;89.22;103104.97;5052899;28;20041;-79
2022/04/16 05:35:08;;;;;;;33.72;22.10;;;;;;;5.28;90.21;103104.97;5053670;28;20380;-79
2022/04/16 05:37:34;;;;;;;29.88;19.23;;;;;;;5.35;89.07;103099.25;5053363;28;20103;-79
2022/04/16 05:40:00;;;;;;;26.45;16.73;;;;;;;5.41;88.69;103108.94;5052504;28;20427;-79
2022/04/16 05:42:25;;;;;;;30.60;21.27;;;;;;;5.39;89.99;103106.31;5053830;28;20063;-80
2022/04/16 05:44:50;;;;;;;32.10;22.10;;;;;;;5.43;89.77;103101.28;5053611;28;20377;-79
2022/04/16 05:47:16;;;;;;;31.33;21.85;;;;;;;5.47;89.58;103103.19;5052977;28;20077;-80
2022/04/16 05:49:41;;;;;;;29.35;19.90;;;;;;;5.49;89.69;103098.97;5053307;28;20385;-79
2022/04/16 05:52:07;;;;;;;28.70;19.35;;;;;;;5.53;89.75;103104.31;5053207;28;20081;-79
2022/04/16 05:54:36;;;;;;;29.77;20.23;;;;;;;5.61;89.10;103108.91;5052438;28;20131;-79
2022/04/16 05:57:02;;;;;;;34.90;23.40;;;;;;;5.64;89.85;103109.91;5052973;28;20086;-79
2022/04/16 05:59:33;;;;;;;33.20;22.88;;;;;;;5.67;90.13;103120.34;5051491;28;20025;-78
2022/04/16 06:01:58;;;;;;;32.35;22.65;;;;;;;5.71;89.30;103111.94;5052112;28;20031;-81
2022/04/16 06:04:23;;;;;;;34.08;23.52;;;;;;;5.77;89.49;103126.78;5047014;28;20112;-80
2022/04/16 06:06:49;;;;;;;33.47;23.10;;;;;;;5.82;89.41;103126.97;5033006;28;20033;-77
2022/04/16 06:09:14;;;;;;;34.83;24.17;;;;;;;5.84;89.69;103133.06;5044578;28;20025;-77
2022/04/16 06:11:41;;;;;;;33.17;22.20;;;;;;;5.92;89.66;103147.13;5052822;28;20025;-77
2022/04/16 06:14:07;;;;;;;30.83;20.23;;;;;;;5.97;89.25;103140.47;5053322;28;20109;-77
2022/04/16 06:16:32;;;;;;;33.70;22.08;;;;;;;6.07;89.32;103141.75;5052091;28;20111;-77
2022/04/16 06:18:57;;;;;;;31.58;21.45;;;;;;;6.13;89.06;103143.69;5051137;28;20041;-77
2022/04/16 06:21:22;;;;;;;33.38;23.13;;;;;;;6.21;89.11;103144.88;5052244;28;20175;-77
2022/04/16 06:23:51;;;;;;;37.50;26.55;;;;;;;6.21;89.48;103144.88;5051949;28;20062;-77
2022/04/16 06:26:17;;;;;;;36.17;25.45;;;;;;;6.33;88.80;103150.53;5036989;28;20025;-76
2022/04/16 06:28:45;;;;;;;36.33;24.23;;;;;;;6.38;88.85;103148.13;5051699;28;20024;-78
2022/04/16 06:31:10;;;;;;;33.08;22.35;;;;;;;6.47;88.93;103151.06;5052487;28;20029;-76
2022/04/16 06:33:35;;;;;;;34.58;23.92;;;;;;;6.56;88.93;103152.25;5052143;28;20361;-77
2022/04/16 06:36:01;;;;;;;32.47;21.90;;;;;;;6.64;88.73;103156.88;5051289;28;20125;-79
2022/04/16 06:38:29;;;;;;;34.17;23.30;;;;;;;6.74;88.22;103142.63;5046040;28;20360;-78
2022/04/16 06:40:55;;;;;;;34.25;24.17;;;;;;;6.78;88.15;103148.78;5032684;28;20021;-77
2022/04/16 06:43:20;;;;;;;32.45;23.17;;;;;;;6.86;87.82;103154.22;5046636;28;20079;-77
2022/04/16 06:45:45;;;;;;;34.10;23.27;;;;;;;6.93;88.49;103156.22;5052056;28;20459;-77
2022/04/16 06:48:10;;;;;;;32.17;22.05;;;;;;;7.02;88.02;103158.25;5052498;28;20029;-78
2022/04/16 06:50:35;;;;;;;33.33;22.95;;;;;;;7.15;87.25;103154.44;5051840;28;20056;-79
2022/04/16 06:53:04;;;;;;;30.65;20.40;;;;;;;7.24;87.34;103160.78;5052581;28;20419;-81
2022/04/16 06:55:29;;;;;;;32.30;20.85;;;;;;;7.34;87.43;103159.44;5051468;28;20107;-81
2022/04/16 06:57:54;;;;;;;31.67;20.47;;;;;;;7.45;86.73;103158.94;5051371;28;20029;-79
2022/04/16 07:00:19;;;;;;;36.90;26.30;;;;;;;7.50;86.33;103157.38;5052467;28;20029;-79
2022/04/16 07:02:45;;;;;;;34.97;24.33;;;;;;;7.63;86.24;103156.09;5052070;28;20108;-77
2022/04/16 07:05:10;;;;;;;37.13;25.17;;;;;;;7.66;85.61;103161.34;5051454;28;20033;-78
2022/04/16 07:07:38;;;;;;;37.92;25.33;;;;;;;7.74;85.52;103159.94;5051371;28;20041;-79
2022/04/16 07:10:03;;;;;;;36.67;25.00;;;;;;;8.43;83.88;103160.41;5052566;28;20036;-79
2022/04/16 07:12:29;;;;;;;33.07;22.73;;;;;;;10.31;82.24;103166.31;5050931;28;20041;-79
2022/04/16 07:14:55;;;;;;;29.23;19.58;;;;;;;12.38;76.00;103153.75;5055378;22;20036;-80
2022/04/16 07:17:20;;;;;;;30.67;21.20;;;;;;;13.68;66.26;103159.63;5012680;28;20072;-82
2022/04/16 07:19:45;;;;;;;32.10;22.90;;;;;;;13.86;61.90;103158.88;5011295;28;20026;-81
2022/04/16 07:22:10;;;;;;;30.03;21.03;;;;;;;13.73;62.37;103164.00;5011982;28;20482;-81
2022/04/16 07:24:38;;;;;;;30.13;21.13;;;;;;;12.83;65.82;103157.81;5012129;28;20526;-82
2022/04/16 07:27:19;;;;;;;29.13;19.73;;;;;;;12.15;66.86;103163.81;5012458;28;20513;-82
2022/04/16 07:29:58;;;;;;;29.90;20.10;;;;;;;11.32;69.25;103171.06;5012692;28;20462;-82
2022/04/16 07:32:32;;;;;;;30.63;20.83;;;;;;;10.51;71.59;103161.59;5015621;28;20497;-82
2022/04/16 07:34:57;;;;;;;30.00;20.23;;;;;;;10.19;73.40;103152.19;5016106;28;20049;-82
2022/04/16 07:37:23;;;;;;;30.90;20.73;;;;;;;9.89;74.11;103154.97;5016283;28;20462;-83
2022/04/16 07:39:57;;;;;;;29.70;20.93;;;;;;;9.88;74.87;103171.38;5014908;28;20037;-82
2022/04/16 07:42:26;;;;;;;30.92;20.92;;;;;;;9.70;75.86;103170.03;5016037;28;20041;-82
2022/04/16 07:44:51;;;;;;;29.55;20.15;;;;;;;9.64;76.11;103181.97;5016151;28;20025;-83
2022/04/16 07:47:17;;;;;;;30.77;20.77;;;;;;;9.56;76.45;103171.41;5014879;28;20095;-82
2022/04/16 07:49:44;;;;;;;29.83;20.00;;;;;;;9.46;77.25;103170.28;5015700;28;20033;-81
2022/04/16 07:52:09;;;;;;;31.90;21.13;;;;;;;9.38;76.52;103162.28;5016435;28;20022;-83
2022/04/16 07:54:34;;;;;;;30.20;20.77;;;;;;;9.44;77.10;103174.53;5015351;28;20029;-82
2022/04/16 07:57:05;;;;;;;29.00;19.23;;;;;;;9.56;77.40;103167.09;5015558;28;20029;-82
2022/04/16 07:59:34;;;;;;;29.55;19.83;;;;;;;9.68;76.56;103163.06;5015952;28;20097;-82
2022/04/16 08:01:59;;;;;;;27.85;18.33;;;;;;;9.82;76.77;103166.91;5008243;28;20030;-81
2022/04/16 08:04:25;;;;;;;26.50;17.17;;;;;;;10.03;75.98;103166.53;5015839;28;20088;-81
2022/04/16 08:06:50;;;;;;;25.20;16.63;;;;;;;10.19;75.57;103174.69;5014284;28;20033;-81
2022/04/16 08:09:16;;;;;;;24.90;16.03;;;;;;;10.36;75.63;103175.94;5015680;28;20028;-81
2022/04/16 08:11:41;;;;;;;29.37;19.37;;;;;;;10.30;74.22;103165.44;5014430;28;20034;-81
2022/04/16 08:14:10;;;;;;;28.00;18.37;;;;;;;10.44;73.18;103178.75;5014373;28;20854;-82
2022/04/16 08:16:35;;;;;;;28.23;18.80;;;;;;;10.31;73.29;103172.41;5015046;28;20050;-88
2022/04/16 08:19:00;;;;;;;28.30;19.33;;;;;;;10.35;73.04;103174.22;5015083;28;20029;-81
2022/04/16 08:21:26;;;;;;;26.90;17.83;;;;;;;10.46;73.15;103169.28;5014385;28;20026;-81
2022/04/16 08:23:56;;;;;;;25.70;16.70;;;;;;;10.52;73.95;103173.75;5014623;28;20034;-80
2022/04/16 08:26:25;;;;;;;26.25;16.55;;;;;;;10.72;72.09;103183.69;5015226;28;20044;-80
2022/04/16 08:28:50;;;;;;;28.27;18.88;;;;;;;10.57;72.03;103172.16;5014131;28;20494;-80
2022/04/16 08:31:16;;;;;;;27.67;18.97;;;;;;;10.55;72.11;103178.13;5015260;28;20026;-81
2022/04/16 08:33:42;;;;;;;27.40;17.67;;;;;;;10.56;71.53;103183.38;5015017;28;20061;-82
2022/04/16 08:36:07;;;;;;;26.43;16.67;;;;;;;10.72;71.96;103175.91;5014728;28;20536;-81
2022/04/16 08:38:35;;;;;;;26.27;17.03;;;;;;;10.79;71.34;103176.06;5013977;28;20065;-81
2022/04/16 08:41:01;;;;;;;25.92;16.58;;;;;;;10.89;71.13;103184.94;5014400;28;20040;-82
2022/04/16 08:43:27;;;;;;;24.30;15.70;;;;;;;11.05;71.00;103182.66;5014342;28;20093;-80
2022/04/16 08:45:55;;;;;;;24.95;15.57;;;;;;;11.26;71.56;103180.47;5014953;28;20441;-80
2022/04/16 08:48:20;;;;;;;23.40;14.88;;;;;;;11.49;71.03;103190.44;5015029;28;20109;-80
2022/04/16 08:50:47;;;;;;;23.60;13.87;;;;;;;11.72;70.52;103189.97;5014186;28;20097;-80
2022/04/16 08:53:13;;;;;;;22.55;13.65;;;;;;;11.88;68.87;103184.19;5014622;28;20018;-80
2022/04/16 08:55:38;;;;;;;22.70;14.30;;;;;;;12.03;68.74;103194.00;5014512;28;20076;-80
2022/04/16 08:58:04;;;;;;;21.83;12.93;;;;;;;12.18;69.07;103185.56;5013821;28;20026;-80
2022/04/16 09:00:29;;;;;;;20.43;12.27;;;;;;;12.34;69.13;103181.47;5014875;28;20471;-80
2022/04/16 09:02:57;;;;;;;20.03;11.23;;;;;;;12.50;67.28;103173.88;5014590;28;20155;-80
2022/04/16 09:05:24;;;;;;;21.98;13.13;;;;;;;12.63;67.28;103182.72;5013888;28;20077;-80
2022/04/16 09:07:52;;;;;;;21.73;12.63;;;;;;;12.76;66.82;103176.84;5014406;28;20030;-80
2022/04/16 09:10:19;;;;;;;20.40;11.77;;;;;;;12.90;65.83;103179.59;5013848;28;20037;-80
2022/04/16 09:12:45;;;;;;;19.73;11.00;;;;;;;13.00;66.51;103172.78;5013077;28;20240;-80
2022/04/16 09:15:12;;;;;;;19.85;10.73;;;;;;;13.12;65.72;103174.63;5013284;28;20494;-80
2022/04/16 09:17:39;;;;;;;18.45;10.10;;;;;;;13.23;64.01;103172.16;5013382;28;20108;-80
2022/04/16 09:20:14;;;;;;;;;;;;;;;13.33;60.91;103174.00;5014843;28;20022;-80
2022/04/16 09:22:48;;;;;;;20.95;11.57;;;;;;;13.40;62.11;103178.47;5014052;28;19920;-80
2022/04/16 09:25:16;;;;;;;20.00;11.75;;;;;;;13.42;62.77;103179.34;5013558;28;20057;-80
2022/04/16 09:27:52;;;;;;;20.38;11.32;;;;;;;13.39;60.00;103179.34;5013719;28;20447;-80
2022/04/16 09:30:29;;;;;;;17.90;9.53;;;;;;;13.29;58.75;103182.66;5014429;28;20030;-80
2022/04/16 09:32:59;;;;;;;17.98;9.05;;;;;;;13.40;59.77;103175.00;5013164;28;20061;-80
2022/04/16 09:35:33;;;;;;;17.02;9.25;;;;;;;13.63;59.24;103177.81;5013774;28;20034;-80
2022/04/16 09:38:01;;;;;;;17.45;9.30;;;;;;;13.65;54.84;103170.88;5014030;28;20030;-81
2022/04/16 09:40:29;;;;;;;15.80;8.02;;;;;;;13.80;58.36;103166.66;5013290;28;20387;-81
2022/04/16 09:42:57;;;;;;;14.52;7.60;;;;;;;14.02;58.86;103168.59;5014059;28;20030;-80
2022/04/16 09:45:22;;;;;;;18.48;10.43;;;;;;;14.23;57.59;103164.38;5013325;28;20029;-80
2022/04/16 09:47:49;;;;;;;19.23;11.07;;;;;;;13.96;57.07;103160.69;5013441;28;20036;-81
2022/04/16 09:50:21;;;;;;;19.33;10.63;;;;;;;13.85;57.58;103160.63;5013715;28;20042;-81
2022/04/16 09:52:54;;;;;;;19.42;10.98;;;;;;;13.71;55.94;103163.13;5012110;28;20034;-80
2022/04/16 09:55:21;;;;;;;18.00;9.73;;;;;;;13.50;56.86;103162.94;5013901;28;20034;-81
2022/04/16 09:57:51;;;;;;;17.80;10.02;;;;;;;13.16;57.49;103168.63;5013560;28;20069;-81
2022/04/16 10:00:19;;;;;;;19.45;10.50;;;;;;;13.10;57.62;103164.22;5012890;28;20040;-81
2022/04/16 10:02:45;;;;;;;20.48;11.50;;;;;;;13.04;57.36;103158.94;5013366;28;20084;-81
2022/04/16 10:05:10;;;;;;;17.70;9.48;;;;;;;13.36;57.56;103154.91;5014004;28;20026;-82
2022/04/16 10:07:40;;;;;;;19.50;9.40;;;;;;;13.64;55.53;103163.03;5012636;28;20042;-82
2022/04/16 10:10:17;;;;;;;16.58;8.80;;;;;;;13.70;55.00;103150.94;5013417;28;20034;-83
2022/04/16 10:13:01;;;;;;;17.70;8.63;;;;;;;13.79;55.00;103160.53;5013337;28;20112;-81
2022/04/16 10:15:38;;;;;;;15.82;8.35;;;;;;;13.84;52.33;103158.00;5012104;28;20065;-82
2022/04/16 10:18:04;;;;;;;14.77;7.10;;;;;;;13.87;52.96;103158.91;5013000;28;20052;-82
2022/04/16 10:20:29;;;;;;;11.63;6.00;;;;;;;14.02;52.57;103145.09;5012414;28;20461;-80
2022/04/16 10:22:58;;;;;;;9.50;5.20;;;;;;;14.22;53.83;103146.94;4999078;28;20022;-80
2022/04/16 10:25:34;;;;;;;11.50;6.22;;;;;;;14.55;53.17;103148.00;5004758;28;20101;-81
2022/04/16 10:28:07;;;;;;;12.25;6.45;;;;;;;14.63;48.63;103158.50;5006643;28;20379;-82
2022/04/16 10:30:38;;;;;;;11.15;5.50;;;;;;;14.40;49.56;103154.03;5003880;28;20037;-81
2022/04/16 10:33:17;;;;;;;9.38;4.97;;;;;;;14.71;50.51;103153.34;5002367;28;20414;-81
2022/04/16 10:35:54;;;;;;;10.77;5.53;;;;;;;14.82;50.95;103149.03;5008221;28;20174;-81
2022/04/16 10:38:33;;;;;;;14.10;6.13;;;;;;;14.70;47.96;103155.06;5001207;28;20525;-81
2022/04/16 10:41:18;;;;;;;11.07;5.70;;;;;;;14.50;49.87;103147.13;4993095;28;20026;-80
2022/04/16 10:43:57;;;;;;;10.13;5.50;;;;;;;14.51;49.01;103147.13;4991732;28;20483;-81
2022/04/16 10:46:23;;;;;;;7.70;4.50;;;;;;;14.42;46.67;103149.69;4993367;28;20034;-81
2022/04/16 10:48:49;;;;;;;6.30;3.80;;;;;;;14.62;48.68;103147.19;4992645;28;20027;-80
2022/04/16 10:51:17;;;;;;;;;;;;;;;14.80;45.66;103166.44;4993984;28;20281;-82
2022/04/16 10:53:42;;;;;;;8.75;4.60;;;;;;;14.87;45.57;103151.66;4993156;28;19914;-81
2022/04/16 10:56:18;;;;;;;8.17;4.90;;;;;;;14.59;46.07;103148.88;5006836;28;20056;-80
2022/04/16 10:58:59;;;;;;;8.55;4.80;;;;;;;14.58;47.05;103147.16;5012594;28;20034;-81
2022/04/16 11:01:26;;;;;;;8.57;4.80;;;;;;;14.62;47.34;103154.13;5012675;28;20030;-80
2022/04/16 11:03:54;;;;;;;7.82;4.57;;;;;;;14.83;47.19;103148.16;5013034;28;20034;-80
2022/04/16 11:06:19;;;;;;;8.80;5.15;;;;;;;14.96;46.34;103152.56;5016699;28;20026;-80
2022/04/16 11:08:45;;;;;;;8.83;5.10;;;;;;;15.07;46.84;103147.34;5015951;28;20515;-80
2022/04/16 11:11:12;;;;;;;9.27;5.40;;;;;;;15.04;46.86;103144.72;5015997;28;20029;-80
2022/04/16 11:13:39;;;;;;;8.00;4.80;;;;;;;15.30;48.51;103138.69;5015987;28;20425;-80
2022/04/16 11:16:05;;;;;;;8.68;5.13;;;;;;;15.33;45.50;103140.44;5016550;28;20341;-81
2022/04/16 11:18:44;;;;;;;10.50;5.40;;;;;;;15.31;46.47;103143.06;5015725;28;20037;-81
2022/04/16 11:21:17;;;;;;;6.63;4.03;;;;;;;15.56;47.87;103143.09;5016779;28;20021;-81
2022/04/16 11:23:47;;;;;;;9.52;5.07;;;;;;;15.72;44.72;103146.56;5015798;28;20113;-80
2022/04/16 11:34:32;;;;;;;10.32;5.47;;;;;;;15.49;45.93;103143.94;5016867;28;20049;-80
2022/04/16 11:37:01;;;;;;;10.60;5.53;;;;;;;15.70;45.16;103132.59;5016317;28;20467;-80